Monte — V2FS2 — position and weather

sailwx.info

Track history (hours):
 
Tides and Currents Weather Stations Pressure Air Temp Water Temp Dewpoint Dewpoint Depression Visibility Wind Speed Wind Dir Waves Ship Positions

Monte

Last reported at 2014-Nov-21 18:34 UTC. Time now 2014-Nov-21 19:22 UTC.
Position N 53°35' E 000°18'.

Length 104 m; draft 3.8 m.

Type: Cargo ship. MMSI: 305777000.

Date/timePositionNaut miles runAvg speedWind from/ knotsBaromVisibWave heightAir tempDewpointWater temp
2014-Nov-21 18:34N 53°35' E 000°18'8 8.0
2014-Nov-21 17:33N 53°43' E 000°18'9 9.5
2014-Nov-21 16:34N 53°52' E 000°11'1010.1
2014-Nov-21 15:34N 54°01' E 000°03'1110.8
2014-Nov-21 14:34N 54°10' W 000°06'1110.7
2014-Nov-21 13:34N 54°19' W 000°17'1010.3
2014-Nov-21 12:34N 54°27' W 000°27'10 9.7
2014-Nov-21 11:32N 54°33' W 000°41'1010.4
2014-Nov-21 10:34N 54°38' W 000°57'7 7.2
2014-Nov-21 09:32N 54°37' W 001°09'1 0.9
2014-Nov-21 08:28N 54°36' W 001°10'0 0.0
2014-Nov-21 07:28N 54°36' W 001°10'0 0.0
2014-Nov-20 17:33N 54°36' W 001°10'0 0.0
2014-Nov-20 15:33N 54°36' W 001°10'0 0.0
2014-Nov-20 14:18N 54°36' W 001°10'0 0.0
2014-Nov-20 12:33N 54°36' W 001°10'0 0.0
2014-Nov-20 11:21N 54°36' W 001°09'0 0.0
2014-Nov-20 09:24N 54°36' W 001°10'0 0.0
2014-Nov-20 08:27N 54°36' W 001°10'0 0.0
2014-Nov-20 00:06N 54°36' W 001°10'0 0.0
2014-Nov-19 23:30N 54°36' W 001°09'0 0.0
2014-Nov-19 14:18N 54°36' W 001°10'0 0.0
2014-Nov-19 13:33N 54°36' W 001°10'0 0.0
2014-Nov-19 12:21N 54°36' W 001°10'0 0.0
2014-Nov-19 11:18N 54°36' W 001°10'0 0.0
2014-Nov-19 10:24N 54°36' W 001°10'0 0.0
2014-Nov-19 09:21N 54°36' W 001°10'0 0.0
2014-Nov-19 08:21N 54°36' W 001°10'0 0.0
2014-Nov-19 07:27N 54°36' W 001°10'0 0.0
2014-Nov-19 06:32N 54°36' W 001°10'4 4.2
2014-Nov-19 05:33N 54°40' W 001°08'2 2.3
2014-Nov-19 04:34N 54°41' W 001°04'6 6.0
2014-Nov-19 03:33N 54°38' W 000°55'7 7.2
2014-Nov-19 02:33N 54°34' W 000°45'10 8.3
2014-Nov-19 01:22N 54°29' W 000°30'7 8.1
2014-Nov-19 00:33N 54°24' W 000°23'8 8.4
2014-Nov-18 23:33N 54°17' W 000°15'9 8.6
2014-Nov-18 22:33N 54°10' W 000°06'9 8.5
2014-Nov-18 21:33N 54°03' E 000°02'8 8.3
2014-Nov-18 20:33N 53°56' E 000°10'9 8.9
2014-Nov-18 19:32N 53°49' E 000°18'1010.6
2014-Nov-18 18:33N 53°40' E 000°27'48 8.8
2014-Nov-18 13:06N 53°00' E 001°12'510.2
2014-Nov-18 12:33N 52°58' E 001°21'1111.0
2014-Nov-18 11:33N 52°52' E 001°36'1411.4
2014-Nov-18 10:21N 52°44' E 001°54'911.2
2014-Nov-18 09:33N 52°35' E 001°53'1010.4
2014-Nov-18 08:33N 52°25' E 001°53'10 9.1
2014-Nov-18 07:29N 52°15' E 001°52'8 8.8
2014-Nov-18 06:33N 52°07' E 001°50'8 8.2
2014-Nov-18 05:33N 51°59' E 001°50'8 8.4
2014-Nov-18 04:33N 51°50' E 001°49'9 8.9
2014-Nov-18 03:33N 51°41' E 001°48'9 9.4
2014-Nov-18 02:33N 51°32' E 001°46'10 9.7
2014-Nov-18 01:33N 51°23' E 001°43'1010.0
2014-Nov-18 00:33N 51°13' E 001°39'9 9.2
2014-Nov-17 23:33N 51°04' E 001°38'1110.7
2014-Nov-17 22:32N 50°54' E 001°29'313 8.6
2014-Nov-16 10:06N 48°04' W 005°15'5 9.0
2014-Nov-16 09:34N 47°60' W 005°12'9 9.3
2014-Nov-16 08:33N 47°51' W 005°07'252 7.8
2014-Nov-15 00:19N 44°13' W 002°06'17 8.5
2014-Nov-14 22:16N 43°58' W 001°54'6 9.0
2014-Nov-14 21:33N 43°52' W 001°49'10 9.2
2014-Nov-14 20:25N 43°44' W 001°41'8 9.2
2014-Nov-14 19:33N 43°37' W 001°36'7 0.5
2014-Nov-14 04:17N 43°31' W 001°29'0 0.1
2014-Nov-14 02:20N 43°31' W 001°30'0 0.0
2014-Nov-14 01:14N 43°31' W 001°30'0 0.0
2014-Nov-14 00:20N 43°31' W 001°30'0 0.0
2014-Nov-13 15:14N 43°31' W 001°30'0 0.0
2014-Nov-13 14:05N 43°31' W 001°30'0 0.0
2014-Nov-13 13:32N 43°31' W 001°30'0 0.0
2014-Nov-13 12:29N 43°31' W 001°30'0 0.0
2014-Nov-13 11:26N 43°31' W 001°30'0 0.0
2014-Nov-13 09:22N 43°31' W 001°30'0 0.0
2014-Nov-13 07:19N 43°31' W 001°30'0 0.0
2014-Nov-13 04:04N 43°31' W 001°30'0 0.0
2014-Nov-13 03:25N 43°31' W 001°30'0 0.0
2014-Nov-13 02:16N 43°31' W 001°30'0 0.0
2014-Nov-13 01:25N 43°31' W 001°30'0 0.0
2014-Nov-13 00:28N 43°31' W 001°30'0 0.0
2014-Nov-12 23:31N 43°31' W 001°30'0 0.0
2014-Nov-12 20:16N 43°31' W 001°30'0 0.0
2014-Nov-12 19:31N 43°31' W 001°30'0 0.0
2014-Nov-12 18:07N 43°31' W 001°30'0 0.0
2014-Nov-12 17:19N 43°31' W 001°30'0 0.0
2014-Nov-12 15:25N 43°31' W 001°30'0 0.0
2014-Nov-12 12:28N 43°31' W 001°30'0 0.0
2014-Nov-12 11:22N 43°31' W 001°30'0 0.0
2014-Nov-12 10:25N 43°31' W 001°30'0 0.0
2014-Nov-12 09:31N 43°31' W 001°30'0 0.0
2014-Nov-12 08:31N 43°31' W 001°30'2 2.1
2014-Nov-12 07:33N 43°32' W 001°32'  
Track history (hours):
 
Tides and Currents Weather Stations Pressure Air Temp Water Temp Dewpoint Dewpoint Depression Visibility Wind Speed Wind Dir Waves Ship Positions

Monte

Last reported at 2014-Nov-21 18:34 UTC. Time now 2014-Nov-21 19:22 UTC.
Position N 53°35' E 000°18'.

Length 104 m; draft 3.8 m.

Type: Cargo ship. MMSI: 305777000.

Date/timePositionNaut miles runAvg speedWind from/ knotsBaromVisibWave heightAir tempDewpointWater temp
2014-Nov-21 18:34N 53°35' E 000°18'8 8.0
2014-Nov-21 17:33N 53°43' E 000°18'9 9.5
2014-Nov-21 16:34N 53°52' E 000°11'1010.1
2014-Nov-21 15:34N 54°01' E 000°03'1110.8
2014-Nov-21 14:34N 54°10' W 000°06'1110.7
2014-Nov-21 13:34N 54°19' W 000°17'1010.3
2014-Nov-21 12:34N 54°27' W 000°27'10 9.7
2014-Nov-21 11:32N 54°33' W 000°41'1010.4
2014-Nov-21 10:34N 54°38' W 000°57'7 7.2
2014-Nov-21 09:32N 54°37' W 001°09'1 0.9
2014-Nov-21 08:28N 54°36' W 001°10'0 0.0
2014-Nov-21 07:28N 54°36' W 001°10'0 0.0
2014-Nov-20 17:33N 54°36' W 001°10'0 0.0
2014-Nov-20 15:33N 54°36' W 001°10'0 0.0
2014-Nov-20 14:18N 54°36' W 001°10'0 0.0
2014-Nov-20 12:33N 54°36' W 001°10'0 0.0
2014-Nov-20 11:21N 54°36' W 001°09'0 0.0
2014-Nov-20 09:24N 54°36' W 001°10'0 0.0
2014-Nov-20 08:27N 54°36' W 001°10'0 0.0
2014-Nov-20 00:06N 54°36' W 001°10'0 0.0
2014-Nov-19 23:30N 54°36' W 001°09'0 0.0
2014-Nov-19 14:18N 54°36' W 001°10'0 0.0
2014-Nov-19 13:33N 54°36' W 001°10'0 0.0
2014-Nov-19 12:21N 54°36' W 001°10'0 0.0
2014-Nov-19 11:18N 54°36' W 001°10'0 0.0
2014-Nov-19 10:24N 54°36' W 001°10'0 0.0
2014-Nov-19 09:21N 54°36' W 001°10'0 0.0
2014-Nov-19 08:21N 54°36' W 001°10'0 0.0
2014-Nov-19 07:27N 54°36' W 001°10'0 0.0
2014-Nov-19 06:32N 54°36' W 001°10'4 4.2
2014-Nov-19 05:33N 54°40' W 001°08'2 2.3
2014-Nov-19 04:34N 54°41' W 001°04'6 6.0
2014-Nov-19 03:33N 54°38' W 000°55'7 7.2
2014-Nov-19 02:33N 54°34' W 000°45'10 8.3
2014-Nov-19 01:22N 54°29' W 000°30'7 8.1
2014-Nov-19 00:33N 54°24' W 000°23'8 8.4
2014-Nov-18 23:33N 54°17' W 000°15'9 8.6
2014-Nov-18 22:33N 54°10' W 000°06'9 8.5
2014-Nov-18 21:33N 54°03' E 000°02'8 8.3
2014-Nov-18 20:33N 53°56' E 000°10'9 8.9
2014-Nov-18 19:32N 53°49' E 000°18'1010.6
2014-Nov-18 18:33N 53°40' E 000°27'48 8.8
2014-Nov-18 13:06N 53°00' E 001°12'510.2
2014-Nov-18 12:33N 52°58' E 001°21'1111.0
2014-Nov-18 11:33N 52°52' E 001°36'1411.4
2014-Nov-18 10:21N 52°44' E 001°54'911.2
2014-Nov-18 09:33N 52°35' E 001°53'1010.4
2014-Nov-18 08:33N 52°25' E 001°53'10 9.1
2014-Nov-18 07:29N 52°15' E 001°52'8 8.8
2014-Nov-18 06:33N 52°07' E 001°50'8 8.2
2014-Nov-18 05:33N 51°59' E 001°50'8 8.4
2014-Nov-18 04:33N 51°50' E 001°49'9 8.9
2014-Nov-18 03:33N 51°41' E 001°48'9 9.4
2014-Nov-18 02:33N 51°32' E 001°46'10 9.7
2014-Nov-18 01:33N 51°23' E 001°43'1010.0
2014-Nov-18 00:33N 51°13' E 001°39'9 9.2
2014-Nov-17 23:33N 51°04' E 001°38'1110.7
2014-Nov-17 22:32N 50°54' E 001°29'313 8.6
2014-Nov-16 10:06N 48°04' W 005°15'5 9.0
2014-Nov-16 09:34N 47°60' W 005°12'9 9.3
2014-Nov-16 08:33N 47°51' W 005°07'252 7.8
2014-Nov-15 00:19N 44°13' W 002°06'17 8.5
2014-Nov-14 22:16N 43°58' W 001°54'6 9.0
2014-Nov-14 21:33N 43°52' W 001°49'10 9.2
2014-Nov-14 20:25N 43°44' W 001°41'8 9.2
2014-Nov-14 19:33N 43°37' W 001°36'7 0.5
2014-Nov-14 04:17N 43°31' W 001°29'0 0.1
2014-Nov-14 02:20N 43°31' W 001°30'0 0.0
2014-Nov-14 01:14N 43°31' W 001°30'0 0.0
2014-Nov-14 00:20N 43°31' W 001°30'0 0.0
2014-Nov-13 15:14N 43°31' W 001°30'0 0.0
2014-Nov-13 14:05N 43°31' W 001°30'0 0.0
2014-Nov-13 13:32N 43°31' W 001°30'0 0.0
2014-Nov-13 12:29N 43°31' W 001°30'0 0.0
2014-Nov-13 11:26N 43°31' W 001°30'0 0.0
2014-Nov-13 09:22N 43°31' W 001°30'0 0.0
2014-Nov-13 07:19N 43°31' W 001°30'0 0.0
2014-Nov-13 04:04N 43°31' W 001°30'0 0.0
2014-Nov-13 03:25N 43°31' W 001°30'0 0.0
2014-Nov-13 02:16N 43°31' W 001°30'0 0.0
2014-Nov-13 01:25N 43°31' W 001°30'0 0.0
2014-Nov-13 00:28N 43°31' W 001°30'0 0.0
2014-Nov-12 23:31N 43°31' W 001°30'0 0.0
2014-Nov-12 20:16N 43°31' W 001°30'0 0.0
2014-Nov-12 19:31N 43°31' W 001°30'0 0.0
2014-Nov-12 18:07N 43°31' W 001°30'0 0.0
2014-Nov-12 17:19N 43°31' W 001°30'0 0.0
2014-Nov-12 15:25N 43°31' W 001°30'0 0.0
2014-Nov-12 12:28N 43°31' W 001°30'0 0.0
2014-Nov-12 11:22N 43°31' W 001°30'0 0.0
2014-Nov-12 10:25N 43°31' W 001°30'0 0.0
2014-Nov-12 09:31N 43°31' W 001°30'0 0.0
2014-Nov-12 08:31N 43°31' W 001°30'2 2.1
2014-Nov-12 07:33N 43°32' W 001°32'  

Dump ship's entire track history